createdAt,value
2018-12-08T00:01:09.755Z,98647.82
2018-12-08T00:03:39.296Z,98646.61
2018-12-08T00:06:08.124Z,98630.97
2018-12-08T00:08:37.009Z,98629.12
2018-12-08T00:11:05.946Z,98621.34
2018-12-08T00:13:34.790Z,98617.02
2018-12-08T00:16:03.705Z,98616.50
2018-12-08T00:18:32.572Z,98610.59
2018-12-08T00:21:01.299Z,98608.23
2018-12-08T00:23:30.141Z,98606.05
2018-12-08T00:25:58.965Z,98598.48
2018-12-08T00:28:27.712Z,98597.47
2018-12-08T00:31:07.465Z,98588.55
2018-12-08T00:33:36.336Z,98586.70
2018-12-08T00:36:05.749Z,98584.85
2018-12-08T00:38:34.804Z,98583.51
2018-12-08T00:41:03.728Z,98570.05
2018-12-08T00:43:32.537Z,98562.48
2018-12-08T00:46:01.279Z,98566.86
2018-12-08T00:48:30.270Z,98558.25
2018-12-08T00:50:59.117Z,98557.73
2018-12-08T00:53:27.977Z,98554.20
2018-12-08T00:55:56.833Z,98538.06
2018-12-08T00:58:25.806Z,98530.53
2018-12-08T01:00:54.636Z,98523.80
2018-12-08T01:03:23.493Z,98520.06
2018-12-08T01:05:52.365Z,98519.23
2018-12-08T01:08:21.370Z,98520.06
2018-12-08T01:10:50.253Z,98518.42
2018-12-08T01:13:19.007Z,98504.42
2018-12-08T01:15:47.861Z,98503.62
2018-12-08T01:18:16.561Z,98495.84
2018-12-08T01:20:45.408Z,98482.09
2018-12-08T01:23:14.361Z,98479.70
2018-12-08T01:25:43.205Z,98470.48
2018-12-08T01:28:12.355Z,98473.18
2018-12-08T01:30:41.267Z,98473.18
2018-12-08T01:33:10.084Z,98466.45
2018-12-08T01:35:38.989Z,98455.19
2018-12-08T01:38:07.835Z,98454.34
2018-12-08T01:40:36.716Z,98446.27
2018-12-08T01:43:05.779Z,98444.42
2018-12-08T01:45:34.745Z,98428.78
2018-12-08T01:48:04.037Z,98427.94
2018-12-08T01:50:32.860Z,98418.52
2018-12-08T01:53:01.615Z,98415.83
2018-12-08T01:55:30.541Z,98412.12
2018-12-08T01:57:59.308Z,98404.05
2018-12-08T02:00:28.163Z,98401.88
2018-12-08T02:02:56.835Z,98388.08
2018-12-08T02:05:25.601Z,98388.92
2018-12-08T02:07:54.273Z,98384.88
2018-12-08T02:10:23.119Z,98377.83
2018-12-08T02:12:52.016Z,98378.16
2018-12-08T02:15:20.842Z,98376.81
2018-12-08T02:17:49.499Z,98377.66
2018-12-08T02:20:18.479Z,98376.81
2018-12-08T02:22:47.322Z,98366.89
2018-12-08T02:25:16.206Z,98356.63
2018-12-08T02:27:45.212Z,98353.94
2018-12-08T02:30:14.464Z,98348.56
2018-12-08T02:32:43.262Z,98335.11
2018-12-08T02:35:12.148Z,98340.81
2018-12-08T02:37:41.028Z,98335.61
2018-12-08T02:40:10.447Z,98336.45
2018-12-08T02:42:39.199Z,98332.20
2018-12-08T02:45:07.980Z,98336.45
2018-12-08T02:47:36.914Z,98324.67
2018-12-08T02:50:06.237Z,98320.30
2018-12-08T02:52:35.051Z,98315.77
2018-12-08T02:55:03.844Z,98312.56
2018-12-08T02:57:32.869Z,98306.85
2018-12-08T03:00:01.656Z,98301.47
2018-12-08T03:02:30.587Z,98300.63
2018-12-08T03:04:59.398Z,98299.62
2018-12-08T03:07:28.323Z,98293.40
2018-12-08T03:09:57.215Z,98296.42
2018-12-08T03:12:26.062Z,98285.33
2018-12-08T03:14:54.856Z,98276.75
2018-12-08T03:17:23.528Z,98277.58
2018-12-08T03:19:52.223Z,98262.78
2018-12-08T03:22:21.022Z,98261.11
2018-12-08T03:24:49.672Z,98253.55
2018-12-08T03:27:18.703Z,98253.55
2018-12-08T03:29:47.464Z,98252.02
2018-12-08T03:32:16.470Z,98235.88
2018-12-08T03:34:45.510Z,98232.86
2018-12-08T03:37:14.344Z,98234.20
2018-12-08T03:39:43.107Z,98231.00
2018-12-08T03:42:11.973Z,98226.13
2018-12-08T03:44:40.790Z,98222.60
2018-12-08T03:47:09.587Z,98219.41
2018-12-08T03:49:38.519Z,98220.24
2018-12-08T03:52:06.729Z,98214.02
2018-12-08T03:54:35.480Z,98210.31
2018-12-08T03:57:04.343Z,98201.91
2018-12-08T03:59:33.142Z,98189.48
2018-12-08T04:02:01.936Z,98186.28
2018-12-08T04:04:30.793Z,98185.44
2018-12-08T04:06:59.542Z,98170.97
2018-12-08T04:09:28.480Z,98169.12
2018-12-08T04:11:57.367Z,98164.24
2018-12-08T04:14:26.248Z,98165.59
2018-12-08T04:16:55.157Z,98163.41
2018-12-08T04:19:23.916Z,98161.55
2018-12-08T04:21:52.638Z,98160.72
2018-12-08T04:24:21.386Z,98168.28
2018-12-08T04:26:50.140Z,98156.50
2018-12-08T04:29:18.876Z,98158.36
2018-12-08T04:31:47.693Z,98144.91
2018-12-08T04:34:16.530Z,98142.21
2018-12-08T04:36:45.264Z,98135.48
2018-12-08T04:39:13.991Z,98137.66
2018-12-08T04:41:42.941Z,98134.14
2018-12-08T04:44:11.695Z,98134.98
2018-12-08T04:46:40.509Z,98121.52
2018-12-08T04:49:09.381Z,98112.61
2018-12-08T04:51:38.049Z,98110.76
2018-12-08T04:54:06.735Z,98105.89
2018-12-08T04:56:35.517Z,98100.50
2018-12-08T04:59:04.378Z,98094.29
2018-12-08T05:01:33.076Z,98090.25
2018-12-08T05:04:01.841Z,98082.18
2018-12-08T05:06:30.598Z,98082.69
2018-12-08T05:08:59.364Z,98088.58
2018-12-08T05:11:28.119Z,98085.09
2018-12-08T05:13:56.760Z,98077.52
2018-12-08T05:16:25.533Z,98066.25
2018-12-08T05:18:54.321Z,98054.14
2018-12-08T05:21:23.027Z,98056.50
2018-12-08T05:23:51.682Z,98057.85
2018-12-08T05:26:20.455Z,98047.92
2018-12-08T05:28:49.142Z,98044.73
2018-12-08T05:31:17.806Z,98050.62
2018-12-08T05:33:46.607Z,98042.22
2018-12-08T05:36:15.259Z,98051.96
2018-12-08T05:38:44.098Z,98053.30
2018-12-08T05:41:13.179Z,98044.91
2018-12-08T05:43:41.999Z,98039.86
2018-12-08T05:46:10.692Z,98037.16
2018-12-08T05:48:39.539Z,98039.53
2018-12-08T05:51:08.281Z,98031.27
2018-12-08T05:53:36.922Z,98034.77
2018-12-08T05:56:05.590Z,98034.26
2018-12-08T05:58:34.362Z,98031.56
2018-12-08T06:01:03.772Z,98025.35
2018-12-08T06:03:32.526Z,98031.06
2018-12-08T06:06:01.353Z,98024.33
2018-12-08T06:08:30.180Z,98027.34
2018-12-08T06:10:58.871Z,98023.82
2018-12-08T06:13:27.547Z,98026.00
2018-12-08T06:15:56.355Z,98021.97
2018-12-08T06:18:25.161Z,98021.42
2018-12-08T06:20:53.915Z,98019.78
2018-12-08T06:23:22.771Z,98014.41
2018-12-08T06:25:51.692Z,98008.52
2018-12-08T06:28:27.886Z,98015.24
2018-12-08T06:30:56.954Z,98014.70
2018-12-08T06:33:25.899Z,98002.59
2018-12-08T06:35:54.757Z,98007.47
2018-12-08T06:38:25.346Z,98004.77
2018-12-08T06:40:54.676Z,98004.27
2018-12-08T06:43:23.549Z,98000.73
2018-12-08T06:45:53.103Z,98010.16
2018-12-08T06:48:22.097Z,97999.91
2018-12-08T06:50:50.845Z,98006.45
2018-12-08T06:53:19.648Z,98008.62
2018-12-08T06:55:48.473Z,98001.57
2018-12-08T06:58:17.251Z,98007.79
2018-12-08T07:00:46.139Z,98004.05
2018-12-08T07:03:14.826Z,97997.03
2018-12-08T07:05:43.524Z,97999.72
2018-12-08T07:08:12.232Z,97997.86
2018-12-08T07:10:41.003Z,97994.63
2018-12-08T07:13:09.791Z,97990.59
2018-12-08T07:15:38.529Z,97987.91
2018-12-08T07:18:07.461Z,97979.83
2018-12-08T07:20:36.181Z,97977.14
2018-12-08T07:23:05.398Z,97974.45
2018-12-08T07:25:34.153Z,97979.83
2018-12-08T07:28:03.075Z,97986.05
2018-12-08T07:30:31.919Z,97982.02
2018-12-08T07:33:00.679Z,97980.16
2018-12-08T07:35:29.492Z,97978.81
2018-12-08T07:37:58.153Z,97976.95
2018-12-08T07:40:26.896Z,97976.13
2018-12-08T07:42:55.624Z,97969.39
2018-12-08T07:45:24.572Z,97969.39
2018-12-08T07:47:53.329Z,97969.72
2018-12-08T07:50:22.113Z,97967.33
2018-12-08T07:52:50.837Z,97963.80
2018-12-08T07:55:19.669Z,97967.33
2018-12-08T07:57:48.482Z,97956.56
2018-12-08T08:00:17.901Z,97957.39
2018-12-08T08:02:46.731Z,97953.03
2018-12-08T08:05:15.439Z,97953.88
2018-12-08T08:07:44.207Z,97945.80
2018-12-08T08:10:12.901Z,97936.89
2018-12-08T08:12:41.821Z,97937.72
2018-12-08T08:15:11.576Z,97938.23
2018-12-08T08:17:40.351Z,97942.09
2018-12-08T08:20:11.205Z,97944.78
2018-12-08T08:22:40.155Z,97946.42
2018-12-08T08:25:11.072Z,97947.25
2018-12-08T08:27:40.083Z,97946.42
2018-12-08T08:30:11.290Z,97944.38
2018-12-08T08:32:40.256Z,97949.75
2018-12-08T08:35:09.675Z,97948.70
2018-12-08T08:37:38.639Z,97950.56
2018-12-08T08:40:09.803Z,97954.09
2018-12-08T08:42:38.760Z,97940.95
2018-12-08T08:45:08.675Z,97944.48
2018-12-08T08:47:37.584Z,97949.64
2018-12-08T08:50:09.047Z,97944.78
2018-12-08T08:52:37.814Z,97947.80
2018-12-08T08:55:07.083Z,97949.97
2018-12-08T08:57:36.704Z,97952.66
2018-12-08T09:00:07.621Z,97955.36
2018-12-08T09:02:36.394Z,97951.09
2018-12-08T09:05:06.385Z,97953.50
2018-12-08T09:07:36.212Z,97958.66
2018-12-08T09:10:08.773Z,97959.17
2018-12-08T09:12:37.483Z,97955.64
2018-12-08T09:15:07.532Z,97955.14
2018-12-08T09:17:36.346Z,97951.94
2018-12-08T09:20:08.883Z,97943.86
2018-12-08T09:22:37.797Z,97947.89
2018-12-08T09:25:07.961Z,97947.06
2018-12-08T09:27:36.991Z,97939.31
2018-12-08T09:30:07.520Z,97926.88
2018-12-08T09:32:37.028Z,97923.35
2018-12-08T09:35:06.895Z,97934.95
2018-12-08T09:37:36.936Z,97936.81
2018-12-08T09:40:07.074Z,97930.41
2018-12-08T09:42:36.216Z,97929.57
2018-12-08T09:45:06.352Z,97930.08
2018-12-08T09:47:35.178Z,97928.22
2018-12-08T09:50:04.710Z,97926.88
2018-12-08T09:52:33.588Z,97926.05
2018-12-08T09:55:03.081Z,97930.91
2018-12-08T09:57:31.959Z,97930.63
2018-12-08T10:00:00.752Z,97926.05
2018-12-08T10:02:29.670Z,97921.72
2018-12-08T10:04:58.545Z,97926.59
2018-12-08T10:07:27.564Z,97924.70
2018-12-08T10:09:56.548Z,97910.11
2018-12-08T10:12:25.839Z,97910.95
2018-12-08T10:14:55.319Z,97905.24
2018-12-08T10:17:24.204Z,97908.77
2018-12-08T10:19:53.505Z,97906.91
2018-12-08T10:22:22.709Z,97898.52
2018-12-08T10:24:51.958Z,97898.22
2018-12-08T10:27:21.301Z,97909.79
2018-12-08T10:29:50.391Z,97912.19
2018-12-08T10:32:19.454Z,97911.67
2018-12-08T10:34:49.011Z,97914.88
2018-12-08T10:39:53.091Z,97917.66
2018-12-08T10:42:23.900Z,97922.09
2018-12-08T10:44:52.846Z,97919.72
2018-12-08T10:47:21.708Z,97922.09
2018-12-08T10:49:50.637Z,97920.74
2018-12-08T10:52:19.515Z,97925.11
2018-12-08T10:54:48.444Z,97928.13
2018-12-08T10:57:17.151Z,97921.91
2018-12-08T10:59:46.488Z,97931.11
2018-12-08T11:02:20.387Z,97932.27
2018-12-08T11:04:49.181Z,97936.59
2018-12-08T11:07:18.017Z,97950.37
2018-12-08T11:09:46.633Z,97953.06
2018-12-08T11:12:15.320Z,97947.47
2018-12-08T11:14:43.970Z,97953.17
2018-12-08T11:17:14.243Z,97969.32
2018-12-08T11:19:43.990Z,97979.36
2018-12-08T11:22:13.834Z,97972.12
2018-12-08T11:24:42.544Z,97975.42
2018-12-08T11:27:11.226Z,97966.02
2018-12-08T11:29:40.485Z,97975.94
2018-12-08T11:32:09.713Z,97978.95
2018-12-08T11:34:38.717Z,97980.30
2018-12-08T11:37:07.404Z,97986.81
2018-12-08T11:39:36.197Z,97985.17
2018-12-08T11:42:05.027Z,97987.35
2018-12-08T11:44:34.625Z,97983.31
2018-12-08T11:47:04.983Z,97980.92
2018-12-08T11:49:34.072Z,97979.57
2018-12-08T11:52:02.811Z,97978.73
2018-12-08T11:54:33.031Z,97976.88
2018-12-08T11:57:01.822Z,97982.27
2018-12-08T11:59:30.518Z,97987.65
2018-12-08T12:01:59.821Z,97996.05
2018-12-08T12:07:02.886Z,98003.91
2018-12-08T12:09:32.002Z,98007.11
2018-12-08T12:12:00.822Z,98001.40
2018-12-08T12:14:50.025Z,97988.78
2018-12-08T12:17:18.795Z,97995.50
2018-12-08T12:19:47.565Z,98002.86
2018-12-08T12:22:16.312Z,97996.96
2018-12-08T12:24:53.834Z,98010.74
2018-12-08T12:27:23.200Z,98012.92
2018-12-08T12:29:51.885Z,98007.83
2018-12-08T12:32:20.610Z,98004.13
2018-12-08T12:34:49.301Z,98006.81
2018-12-08T12:37:18.999Z,98018.41
2018-12-08T12:39:47.678Z,98006.30
2018-12-08T12:42:16.495Z,98008.45
2018-12-08T12:44:46.269Z,98010.85
2018-12-08T12:47:15.066Z,98013.22
2018-12-08T12:49:43.801Z,98008.67
2018-12-08T12:52:13.140Z,98008.99
2018-12-08T12:54:42.752Z,98007.65
2018-12-08T12:57:11.456Z,98001.73
2018-12-08T12:59:40.209Z,98001.22
2018-12-08T13:02:09.751Z,98008.16
2018-12-08T13:04:38.420Z,98006.09
2018-12-08T13:07:07.294Z,98003.91
2018-12-08T13:09:35.976Z,97999.87
2018-12-08T13:12:04.935Z,97991.28
2018-12-08T13:14:34.218Z,97995.83
2018-12-08T13:17:02.870Z,97999.03
2018-12-08T13:19:31.577Z,97999.03
2018-12-08T13:22:00.334Z,98002.56
2018-12-08T13:24:32.973Z,97999.58
2018-12-08T13:27:02.556Z,98002.05
2018-12-08T13:29:31.343Z,98003.07
2018-12-08T13:32:00.093Z,97994.19
2018-12-08T13:34:29.899Z,97954.05
2018-12-08T13:36:58.607Z,97986.92
2018-12-08T13:39:27.400Z,97994.70
2018-12-08T13:41:56.086Z,97991.80
2018-12-08T13:44:36.359Z,97995.00
2018-12-08T13:47:05.490Z,97990.16
2018-12-08T13:49:35.948Z,97990.66
2018-12-08T13:52:05.296Z,97995.21
2018-12-08T13:54:47.287Z,97998.73
2018-12-08T13:57:16.494Z,97986.63
2018-12-08T13:59:53.253Z,97993.03
2018-12-08T14:02:22.063Z,97993.03
2018-12-08T14:04:50.746Z,97998.73
2018-12-08T14:07:19.441Z,97992.52
2018-12-08T14:09:48.950Z,98001.43
2018-12-08T14:12:17.686Z,97988.99
2018-12-08T14:14:46.384Z,98002.78
2018-12-08T14:17:15.036Z,97996.88
2018-12-08T14:19:43.751Z,97999.58
2018-12-08T14:22:12.957Z,97997.17
2018-12-08T14:24:42.359Z,97997.69
2018-12-08T14:27:11.094Z,97994.19
2018-12-08T14:29:39.808Z,97985.80
2018-12-08T14:32:08.679Z,97984.23
2018-12-08T14:34:37.706Z,97983.94
2018-12-08T14:37:06.429Z,97993.65
2018-12-08T14:39:35.124Z,97991.50
2018-12-08T14:42:03.835Z,97993.65
2018-12-08T14:44:32.556Z,97995.00
2018-12-08T14:47:01.279Z,97990.16
2018-12-08T14:49:30.031Z,97994.19
2018-12-08T14:51:58.750Z,97992.01
2018-12-08T14:54:27.661Z,97986.11
2018-12-08T14:56:56.347Z,97985.58
2018-12-08T14:59:25.034Z,97977.20
2018-12-08T15:01:53.761Z,97982.59
2018-12-08T15:04:22.482Z,97986.63
2018-12-08T15:06:51.268Z,97974.19
2018-12-08T15:09:20.075Z,97979.57
2018-12-08T15:11:49.047Z,97985.28
2018-12-08T15:14:17.799Z,97981.75
2018-12-08T15:16:46.593Z,97975.53
2018-12-08T15:19:15.371Z,97980.41
2018-12-08T15:21:44.170Z,97970.16
2018-12-08T15:24:12.909Z,97976.05
2018-12-08T15:26:42.571Z,97977.10
2018-12-08T15:29:11.399Z,97973.36
2018-12-08T15:31:40.143Z,97973.06
2018-12-08T15:34:09.024Z,97971.20
2018-12-08T15:36:37.822Z,97974.41
2018-12-08T15:39:07.981Z,97965.50
2018-12-08T15:41:36.681Z,97963.64
2018-12-08T15:44:05.556Z,97965.50
2018-12-08T15:46:34.228Z,97964.48
2018-12-08T15:49:02.927Z,97972.01
2018-12-08T15:51:31.666Z,97964.27
2018-12-08T15:54:00.542Z,97964.27
2018-12-08T15:56:29.317Z,97959.71
2018-12-08T15:58:58.117Z,97963.23
2018-12-08T16:01:26.990Z,97964.05
2018-12-08T16:03:55.720Z,97959.50
2018-12-08T16:06:24.369Z,97950.08
2018-12-08T16:08:53.089Z,97950.08
2018-12-08T16:11:21.818Z,97945.20
2018-12-08T16:13:51.097Z,97947.89
2018-12-08T16:16:19.801Z,97943.86
2018-12-08T16:18:50.505Z,97937.96
2018-12-08T16:21:19.230Z,97938.47
2018-12-08T16:23:48.001Z,97939.63
2018-12-08T16:26:16.899Z,97936.62
2018-12-08T16:28:45.731Z,97940.98
2018-12-08T16:31:14.469Z,97938.28
2018-12-08T16:33:43.255Z,97942.61
2018-12-08T16:36:12.364Z,97931.55
2018-12-08T16:38:41.258Z,97927.81
2018-12-08T16:41:10.124Z,97929.16
2018-12-08T16:43:39.074Z,97923.78
2018-12-08T16:46:07.874Z,97932.69
2018-12-08T16:48:36.870Z,97925.77
2018-12-08T16:51:05.930Z,97919.55
2018-12-08T16:53:34.729Z,97919.87
2018-12-08T16:56:03.847Z,97925.26
2018-12-08T16:58:32.749Z,97912.60
2018-12-08T17:01:01.682Z,97914.49
2018-12-08T17:03:30.474Z,97912.09
2018-12-08T17:05:59.331Z,97904.52
2018-12-08T17:08:28.355Z,97904.52
2018-12-08T17:10:57.296Z,97904.52
2018-12-08T17:13:26.177Z,97904.52
2018-12-08T17:15:55.123Z,97904.45
2018-12-08T17:18:24.007Z,97899.34
2018-12-08T17:20:52.954Z,97892.94
2018-12-08T17:23:21.741Z,97884.87
2018-12-08T17:25:50.735Z,97892.63
2018-12-08T17:28:19.503Z,97886.44
2018-12-08T17:30:48.482Z,97881.05
2018-12-08T17:33:17.344Z,97884.77
2018-12-08T17:35:47.201Z,97879.60
2018-12-08T17:38:16.130Z,97878.55
2018-12-08T17:40:45.052Z,97882.80
2018-12-08T17:43:13.861Z,97881.45
2018-12-08T17:45:43.100Z,97882.80
2018-12-08T17:48:12.121Z,97873.38
2018-12-08T17:50:40.938Z,97875.56
2018-12-08T17:53:09.656Z,97869.86
2018-12-08T17:57:07.856Z,97860.22
2018-12-08T17:59:37.467Z,97860.84
2018-12-08T18:02:06.326Z,97851.10
2018-12-08T18:04:35.224Z,97851.64
2018-12-08T18:07:04.201Z,97842.73
2018-12-08T18:09:33.085Z,97842.00
2018-12-08T18:12:01.996Z,97834.95
2018-12-08T18:14:30.860Z,97826.88
2018-12-08T18:16:59.718Z,97822.33
2018-12-08T18:19:28.731Z,97815.31
2018-12-08T18:21:57.836Z,97822.33
2018-12-08T18:24:26.641Z,97813.42
2018-12-08T18:26:55.548Z,97822.84
2018-12-08T18:29:24.526Z,97813.97
2018-12-08T18:31:53.243Z,97812.08
2018-12-08T18:34:21.962Z,97812.08
2018-12-08T18:36:50.781Z,97814.48
2018-12-08T18:39:19.553Z,97809.09
2018-12-08T18:41:48.962Z,97801.85
2018-12-08T18:44:17.846Z,97800.70
2018-12-08T18:46:46.617Z,97793.45
2018-12-08T18:49:15.436Z,97789.93
2018-12-08T18:51:44.324Z,97789.93
2018-12-08T18:54:13.144Z,97786.95
2018-12-08T18:56:41.888Z,97781.56
2018-12-08T18:59:10.673Z,97778.88
2018-12-08T19:01:39.613Z,97786.11
2018-12-08T19:04:08.432Z,97779.58
2018-12-08T19:06:37.307Z,97772.34
2018-12-08T19:09:07.419Z,97763.97
2018-12-08T19:11:36.186Z,97763.97
2018-12-08T19:14:04.963Z,97747.83
2018-12-08T19:16:33.645Z,97748.34
2018-12-08T19:19:05.043Z,97751.03
2018-12-08T19:21:33.930Z,97751.03
2018-12-08T19:24:02.843Z,97744.81
2018-12-08T19:26:31.582Z,97737.77
2018-12-08T19:29:00.361Z,97739.11
2018-12-08T19:31:29.091Z,97739.11
2018-12-08T19:33:58.031Z,97740.16
2018-12-08T19:36:27.124Z,97735.30
2018-12-08T19:38:55.888Z,97736.96
2018-12-08T19:41:24.756Z,97740.36
2018-12-08T19:43:53.609Z,97733.12
2018-12-08T19:46:22.485Z,97729.30
2018-12-08T19:48:51.238Z,97717.48
2018-12-08T19:51:19.947Z,97717.19
2018-12-08T19:53:48.715Z,97715.53
2018-12-08T19:56:17.524Z,97712.83
2018-12-08T19:58:46.296Z,97710.98
2018-12-08T20:01:15.055Z,97715.75
2018-12-08T20:03:43.781Z,97718.44
2018-12-08T20:06:12.617Z,97695.59
2018-12-08T20:08:41.499Z,97706.84
2018-12-08T20:11:10.390Z,97709.86
2018-12-08T20:13:39.226Z,97706.84
2018-12-08T20:16:07.989Z,97701.14
2018-12-08T20:18:36.816Z,97704.15
2018-12-08T20:21:05.592Z,97697.61
2018-12-08T20:23:34.388Z,97694.64
2018-12-08T20:26:03.168Z,97686.85
2018-12-08T20:28:32.081Z,97683.36
2018-12-08T20:31:01.092Z,97684.70
2018-12-08T20:33:29.903Z,97682.81
2018-12-08T20:35:58.671Z,97678.78
2018-12-08T20:38:27.426Z,97679.33
2018-12-08T20:40:56.348Z,97673.63
2018-12-08T20:43:25.105Z,97676.31
2018-12-08T20:45:53.879Z,97676.63
2018-12-08T20:48:22.635Z,97668.56
2018-12-08T20:50:51.626Z,97672.59
2018-12-08T20:53:20.381Z,97665.55
2018-12-08T20:55:49.303Z,97663.18
2018-12-08T20:58:19.970Z,97669.08
2018-12-08T21:00:48.703Z,97661.00
2018-12-08T21:03:17.436Z,97644.86
2018-12-08T21:05:46.230Z,97647.03
2018-12-08T21:08:14.981Z,97639.48
2018-12-08T21:10:43.652Z,97640.82
2018-12-08T21:13:12.339Z,97628.71
2018-12-08T21:15:41.048Z,97617.95
2018-12-08T21:18:09.802Z,97623.84
2018-12-08T21:20:38.710Z,97619.30
2018-12-08T21:23:07.620Z,97610.07
2018-12-08T21:25:36.516Z,97600.46
2018-12-08T21:28:05.353Z,97610.39
2018-12-08T21:30:34.131Z,97600.14
2018-12-08T21:33:02.862Z,97589.38
2018-12-08T21:35:31.669Z,97595.59
2018-12-08T21:38:00.420Z,97601.80
2018-12-08T21:40:30.893Z,97601.30
2018-12-08T21:42:59.780Z,97592.91
2018-12-08T21:45:29.513Z,97587.84
2018-12-08T21:47:58.325Z,97587.10
2018-12-08T21:50:29.175Z,97581.72
2018-12-08T21:52:58.053Z,97582.55
2018-12-08T21:55:26.709Z,97580.69
2018-12-08T21:57:55.475Z,97579.03
2018-12-08T22:00:24.745Z,97579.34
2018-12-08T22:02:54.065Z,97581.49
2018-12-08T22:05:22.862Z,97574.57
2018-12-08T22:07:51.597Z,97575.41
2018-12-08T22:10:20.339Z,97574.57
2018-12-08T22:12:49.108Z,97571.37
2018-12-08T22:15:18.610Z,97561.41
2018-12-08T22:17:47.353Z,97562.75
2018-12-08T22:20:16.220Z,97564.41
2018-12-08T22:22:44.909Z,97558.01
2018-12-08T22:25:13.670Z,97560.16
2018-12-08T22:27:42.460Z,97558.61
2018-12-08T22:30:11.273Z,97555.09
2018-12-08T22:32:39.995Z,97556.75
2018-12-08T22:35:08.803Z,97555.69
2018-12-08T22:37:38.266Z,97551.14
2018-12-08T22:40:07.969Z,97549.05
2018-12-08T22:42:36.787Z,97545.53
2018-12-08T22:45:07.059Z,97539.13
2018-12-08T22:47:35.900Z,97544.27
2018-12-08T22:50:05.630Z,97547.28
2018-12-08T22:52:34.368Z,97535.17
2018-12-08T22:55:03.271Z,97532.28
2018-12-08T22:57:32.132Z,97530.71
2018-12-08T23:00:00.921Z,97531.55
2018-12-08T23:02:29.665Z,97532.37
2018-12-08T23:04:58.650Z,97535.35
2018-12-08T23:07:27.392Z,97528.62
2018-12-08T23:09:56.306Z,97528.94
2018-12-08T23:12:25.048Z,97534.09
2018-12-08T23:14:54.050Z,97531.41
2018-12-08T23:17:22.822Z,97518.77
2018-12-08T23:19:51.524Z,97516.09
2018-12-08T23:22:20.221Z,97514.22
2018-12-08T23:24:48.944Z,97504.80
2018-12-08T23:27:17.661Z,97505.31
2018-12-08T23:29:47.007Z,97498.59
2018-12-08T23:32:17.372Z,97499.42
2018-12-08T23:34:46.128Z,97494.55
2018-12-08T23:37:15.774Z,97496.22
2018-12-08T23:39:44.501Z,97496.22
2018-12-08T23:42:13.178Z,97488.14
2018-12-08T23:44:41.869Z,97487.08
2018-12-08T23:47:10.565Z,97484.10
2018-12-08T23:49:39.253Z,97481.41
2018-12-08T23:52:07.997Z,97477.66
2018-12-08T23:54:36.700Z,97472.79
2018-12-08T23:57:05.306Z,97467.41
2018-12-08T23:59:34.565Z,97460.16
